Time;durP1;ratioP1;P1;durP2;ratioP2;P2;SDS_P1;SDS_P2;PMS_P1;PMS_P2;Temp;Humidity;BMP_temperature;BMP_pressure;BME280_temperature;BME280_humidity;BME280_pressure;Samples;Min_cycle;Max_cycle;Signal;HPM_P1;HPM_P2
2024/02/16 00:00:07;;;;;;;0.50;0.50;;;16.10;76.60;;;;;;5013911;28;20124;-79
2024/02/16 00:02:32;;;;;;;0.80;0.80;;;16.00;76.70;;;;;;5018234;28;20050;-80
2024/02/16 00:04:58;;;;;;;0.75;0.65;;;16.10;76.70;;;;;;5017186;28;20038;-79
2024/02/16 00:07:24;;;;;;;1.45;0.85;;;16.00;76.80;;;;;;4987795;28;20121;-81
2024/02/16 00:09:50;;;;;;;0.80;0.68;;;16.00;76.80;;;;;;5007273;28;20188;-81
2024/02/16 00:12:16;;;;;;;0.68;0.65;;;16.00;76.90;;;;;;5018989;28;21053;-80
2024/02/16 00:14:42;;;;;;;0.88;0.70;;;16.00;76.90;;;;;;5017319;28;20037;-81
2024/02/16 00:17:10;;;;;;;1.02;0.68;;;16.00;77.10;;;;;;5000326;28;20272;-80
2024/02/16 00:19:35;;;;;;;0.50;0.45;;;16.00;77.00;;;;;;5005730;28;20496;-81
2024/02/16 00:22:01;;;;;;;1.27;0.80;;;16.00;77.10;;;;;;5005222;28;20049;-80
2024/02/16 00:24:26;;;;;;;0.85;0.68;;;15.90;77.30;;;;;;4990696;28;20037;-80
2024/02/16 00:26:52;;;;;;;2.25;0.75;;;16.00;77.10;;;;;;4972566;28;20088;-80
2024/02/16 00:29:19;;;;;;;1.88;1.08;;;16.00;77.20;;;;;;5005938;28;20129;-80
2024/02/16 00:31:44;;;;;;;0.95;0.60;;;16.00;77.20;;;;;;4988045;28;20042;-80
2024/02/16 00:34:10;;;;;;;0.95;0.50;;;16.00;77.20;;;;;;5001751;28;20055;-81
2024/02/16 00:36:36;;;;;;;0.80;0.70;;;16.00;77.30;;;;;;5003921;28;20050;-81
2024/02/16 00:39:03;;;;;;;1.02;0.68;;;16.00;77.10;;;;;;5018256;28;20419;-79
2024/02/16 00:41:29;;;;;;;1.67;0.70;;;16.00;77.20;;;;;;5001492;28;20054;-80
2024/02/16 00:43:56;;;;;;;1.85;0.60;;;15.90;77.30;;;;;;4999288;28;20041;-79
2024/02/16 00:46:22;;;;;;;1.13;0.70;;;16.00;77.50;;;;;;5000214;28;20137;-79
2024/02/16 00:48:51;;;;;;;0.85;0.60;;;15.90;77.40;;;;;;5005811;28;20041;-80
2024/02/16 00:51:17;;;;;;;0.80;0.80;;;15.90;77.60;;;;;;5005657;28;20038;-80
2024/02/16 00:53:42;;;;;;;0.93;0.70;;;15.90;78.30;;;;;;4991991;28;20701;-80
2024/02/16 00:56:08;;;;;;;1.20;0.65;;;15.90;77.60;;;;;;5007098;28;20054;-79
2024/02/16 00:58:34;;;;;;;1.20;0.80;;;15.90;77.60;;;;;;4992334;28;20041;-80
2024/02/16 01:00:59;;;;;;;2.13;0.57;;;15.90;77.60;;;;;;5008350;28;20046;-79
2024/02/16 01:03:26;;;;;;;0.80;0.80;;;15.90;77.50;;;;;;5007959;28;20050;-79
2024/02/16 01:05:52;;;;;;;0.90;0.52;;;15.90;77.60;;;;;;4990896;28;20072;-80
2024/02/16 01:08:18;;;;;;;1.08;0.90;;;15.90;77.50;;;;;;4992379;28;20104;-80
2024/02/16 01:10:44;;;;;;;1.35;0.85;;;15.90;77.50;;;;;;4991713;28;20463;-80
2024/02/16 01:13:10;;;;;;;0.80;0.80;;;15.90;78.30;;;;;;5006845;28;20060;-79
2024/02/16 01:15:37;;;;;;;1.15;0.70;;;15.90;77.50;;;;;;4959910;28;20061;-80
2024/02/16 01:18:03;;;;;;;0.70;0.70;;;15.90;77.90;;;;;;5007231;28;20070;-80
2024/02/16 01:20:30;;;;;;;1.25;0.80;;;15.90;77.50;;;;;;5007172;28;20056;-79
2024/02/16 01:22:56;;;;;;;0.95;0.70;;;15.90;77.60;;;;;;5004581;28;20053;-79
2024/02/16 01:25:22;;;;;;;0.98;0.60;;;15.90;77.50;;;;;;4991234;28;20050;-79
2024/02/16 01:27:48;;;;;;;0.70;0.70;;;15.90;77.60;;;;;;4993348;28;20050;-79
2024/02/16 01:30:15;;;;;;;2.10;0.77;;;15.90;77.60;;;;;;4990503;28;20750;-79
2024/02/16 01:32:40;;;;;;;1.02;0.75;;;15.90;77.90;;;;;;4990925;28;20046;-80
2024/02/16 01:35:06;;;;;;;0.80;0.80;;;15.90;77.80;;;;;;5005791;28;20056;-81
2024/02/16 01:37:32;;;;;;;0.70;0.60;;;15.90;77.60;;;;;;4990953;28;20142;-81
2024/02/16 01:39:58;;;;;;;1.30;0.90;;;15.90;77.70;;;;;;4990903;28;20420;-79
2024/02/16 01:42:24;;;;;;;1.10;1.00;;;15.90;77.70;;;;;;4989929;28;20093;-79
2024/02/16 01:44:49;;;;;;;0.90;0.68;;;15.90;77.80;;;;;;4990564;28;20126;-79
2024/02/16 01:47:15;;;;;;;2.25;0.82;;;15.90;77.90;;;;;;4992543;28;20089;-79
2024/02/16 01:49:41;;;;;;;1.05;0.93;;;15.90;77.80;;;;;;4992226;28;20503;-80
2024/02/16 01:52:07;;;;;;;0.93;0.80;;;15.90;77.80;;;;;;5005129;28;20054;-80
2024/02/16 01:54:32;;;;;;;2.08;0.80;;;15.90;77.70;;;;;;5007505;28;20046;-80
2024/02/16 01:56:58;;;;;;;1.05;0.68;;;15.90;77.80;;;;;;5005251;28;20046;-79
2024/02/16 01:59:24;;;;;;;1.10;0.65;;;15.90;77.80;;;;;;4987966;28;20050;-80
2024/02/16 02:01:50;;;;;;;1.33;0.88;;;15.90;77.70;;;;;;5004784;28;20585;-80
2024/02/16 02:04:16;;;;;;;0.70;0.60;;;15.90;77.90;;;;;;4989063;28;20053;-80
2024/02/16 02:06:41;;;;;;;1.35;0.68;;;15.90;77.90;;;;;;4993574;28;20673;-80
2024/02/16 02:09:07;;;;;;;1.88;0.82;;;15.90;77.80;;;;;;4990322;28;20165;-79
2024/02/16 02:11:32;;;;;;;0.75;0.45;;;15.90;77.90;;;;;;4987212;28;20058;-79
2024/02/16 02:13:58;;;;;;;0.70;0.70;;;15.90;78.00;;;;;;5005129;28;20093;-79
2024/02/16 02:16:26;;;;;;;0.75;0.70;;;15.90;77.90;;;;;;4991867;28;20050;-79
2024/02/16 02:18:52;;;;;;;0.90;0.57;;;15.90;77.90;;;;;;4997905;28;20039;-79
2024/02/16 02:21:17;;;;;;;0.95;0.80;;;15.90;77.90;;;;;;4994851;28;20064;-79
2024/02/16 02:23:43;;;;;;;1.10;0.93;;;15.90;77.90;;;;;;5011328;28;20100;-80
2024/02/16 02:26:09;;;;;;;0.65;0.65;;;15.90;77.90;;;;;;5007663;28;20122;-79
2024/02/16 02:28:34;;;;;;;0.82;0.82;;;15.80;77.80;;;;;;4992675;28;20061;-80
2024/02/16 02:31:00;;;;;;;1.45;0.80;;;15.80;78.60;;;;;;4992946;28;20516;-80
2024/02/16 02:33:25;;;;;;;1.75;1.02;;;15.80;78.00;;;;;;4991124;28;21180;-80
2024/02/16 02:35:51;;;;;;;2.20;0.82;;;15.90;77.90;;;;;;5010792;28;20064;-80
2024/02/16 02:38:17;;;;;;;0.75;0.60;;;15.90;78.00;;;;;;5010256;28;20038;-80
2024/02/16 02:40:42;;;;;;;1.48;0.75;;;15.90;78.00;;;;;;4993770;28;20579;-80
2024/02/16 02:43:08;;;;;;;1.38;1.08;;;15.90;78.00;;;;;;5006294;28;20057;-80
2024/02/16 02:45:34;;;;;;;1.42;0.95;;;15.90;78.00;;;;;;5009322;28;20056;-80
2024/02/16 02:48:00;;;;;;;0.80;0.70;;;15.80;78.10;;;;;;4995304;28;20049;-80
2024/02/16 02:50:26;;;;;;;0.95;0.95;;;15.80;78.00;;;;;;4992663;28;20053;-80
2024/02/16 02:52:52;;;;;;;0.73;0.73;;;15.80;77.90;;;;;;5007227;28;20158;-80
2024/02/16 02:55:17;;;;;;;0.60;0.60;;;15.80;77.90;;;;;;5008098;28;20583;-80
2024/02/16 02:57:43;;;;;;;1.80;1.00;;;15.90;78.00;;;;;;5010412;28;20618;-80
2024/02/16 03:00:10;;;;;;;1.45;0.88;;;15.90;77.90;;;;;;5005423;28;20602;-81
2024/02/16 03:02:40;;;;;;;0.82;0.45;;;15.90;77.70;;;;;;4992299;28;20050;-81
2024/02/16 03:05:08;;;;;;;0.85;0.60;;;15.90;77.60;;;;;;4992581;28;20727;-80
2024/02/16 03:07:34;;;;;;;1.15;0.85;;;16.00;77.50;;;;;;4994459;28;20042;-80
2024/02/16 03:10:00;;;;;;;0.70;0.50;;;15.90;77.70;;;;;;4995531;28;20057;-80
2024/02/16 03:12:25;;;;;;;0.85;0.50;;;15.90;77.70;;;;;;4993840;28;20057;-80
2024/02/16 03:14:51;;;;;;;0.93;0.73;;;15.90;77.60;;;;;;4990505;28;20068;-80
2024/02/16 03:17:17;;;;;;;0.65;0.60;;;15.90;77.70;;;;;;4992106;28;20440;-80
2024/02/16 03:19:42;;;;;;;0.80;0.50;;;15.90;77.60;;;;;;4992829;28;20057;-80
2024/02/16 03:22:08;;;;;;;1.35;0.60;;;15.90;77.60;;;;;;5006528;28;20084;-80
2024/02/16 03:24:34;;;;;;;0.70;0.70;;;15.90;77.60;;;;;;4995280;28;20080;-80
2024/02/16 03:27:00;;;;;;;0.80;0.60;;;15.90;77.70;;;;;;4992672;28;20038;-80
2024/02/16 03:29:26;;;;;;;2.92;0.57;;;15.90;77.50;;;;;;4989892;28;20125;-80
2024/02/16 03:31:52;;;;;;;0.75;0.50;;;15.90;77.40;;;;;;4992240;28;20048;-80
2024/02/16 03:34:17;;;;;;;0.50;0.50;;;15.90;78.10;;;;;;5008030;28;20569;-80
2024/02/16 03:36:43;;;;;;;0.40;0.40;;;15.90;77.80;;;;;;5010039;28;20179;-81
2024/02/16 03:39:08;;;;;;;0.52;0.40;;;15.90;77.90;;;;;;4993616;28;20172;-80
2024/02/16 03:41:34;;;;;;;0.40;0.40;;;15.90;77.90;;;;;;4993279;28;20136;-80
2024/02/16 03:44:00;;;;;;;0.88;0.45;;;15.90;77.90;;;;;;4992502;28;20053;-80
2024/02/16 03:46:26;;;;;;;0.70;0.50;;;15.90;77.90;;;;;;4990428;28;20072;-80
2024/02/16 03:48:51;;;;;;;1.08;0.60;;;15.90;77.80;;;;;;4996767;28;20133;-80
2024/02/16 03:51:17;;;;;;;0.63;0.57;;;15.90;77.80;;;;;;4992924;28;20056;-80
2024/02/16 03:53:44;;;;;;;0.68;0.50;;;15.90;77.90;;;;;;5008931;28;20581;-81
2024/02/16 03:56:12;;;;;;;0.70;0.50;;;15.80;77.90;;;;;;4993839;28;20545;-80
2024/02/16 03:58:37;;;;;;;0.40;0.40;;;15.90;77.90;;;;;;5008332;28;20148;-79
2024/02/16 04:01:03;;;;;;;0.40;0.40;;;15.90;77.70;;;;;;4994306;28;20524;-79
2024/02/16 04:03:29;;;;;;;0.60;0.60;;;15.90;77.80;;;;;;4992665;28;20054;-80
2024/02/16 04:05:54;;;;;;;0.70;0.70;;;15.90;77.70;;;;;;4992968;28;20092;-80
2024/02/16 04:08:20;;;;;;;0.45;0.45;;;15.90;77.60;;;;;;4992889;28;20163;-81
2024/02/16 04:10:46;;;;;;;0.60;0.60;;;15.90;77.70;;;;;;5008870;28;20053;-81
2024/02/16 04:13:12;;;;;;;0.30;0.30;;;15.90;77.80;;;;;;5007781;28;20522;-80
2024/02/16 04:15:38;;;;;;;0.60;0.50;;;15.90;77.80;;;;;;4994554;28;20612;-80
2024/02/16 04:18:04;;;;;;;0.32;0.32;;;15.90;77.90;;;;;;4994182;28;20502;-80
2024/02/16 04:20:29;;;;;;;1.80;0.65;;;15.80;78.10;;;;;;5007008;28;20113;-80
2024/02/16 04:22:55;;;;;;;0.52;0.50;;;15.90;78.20;;;;;;5006947;28;20173;-79
2024/02/16 04:25:20;;;;;;;0.52;0.50;;;15.80;78.10;;;;;;4992443;28;20115;-79
2024/02/16 04:27:46;;;;;;;0.90;0.55;;;15.80;78.10;;;;;;4993926;28;20061;-79
2024/02/16 04:30:12;;;;;;;0.65;0.60;;;15.80;78.10;;;;;;4991700;28;20053;-80
2024/02/16 04:32:37;;;;;;;0.40;0.30;;;15.80;78.10;;;;;;4992980;28;20120;-79
2024/02/16 04:35:04;;;;;;;1.35;0.52;;;15.80;78.20;;;;;;4992052;28;20064;-80
2024/02/16 04:37:29;;;;;;;0.93;0.50;;;15.80;78.20;;;;;;4990599;28;20046;-80
2024/02/16 04:39:55;;;;;;;0.68;0.52;;;15.80;78.20;;;;;;4988865;28;21207;-80
2024/02/16 04:42:20;;;;;;;0.30;0.30;;;15.80;78.20;;;;;;4991172;28;20420;-79
2024/02/16 04:44:46;;;;;;;0.70;0.70;;;15.80;78.20;;;;;;5010949;28;20046;-79
2024/02/16 04:47:12;;;;;;;0.90;0.70;;;15.80;78.40;;;;;;4994239;28;20243;-79
2024/02/16 04:49:37;;;;;;;0.80;0.65;;;15.80;78.50;;;;;;4993410;28;20115;-80
2024/02/16 04:52:03;;;;;;;1.25;0.73;;;15.90;78.70;;;;;;5008884;28;20136;-80
2024/02/16 04:54:29;;;;;;;0.85;0.60;;;15.80;78.50;;;;;;5008740;28;20077;-80
2024/02/16 04:56:54;;;;;;;1.48;0.40;;;15.80;78.40;;;;;;5008748;28;20061;-80
2024/02/16 04:59:20;;;;;;;0.60;0.40;;;15.80;78.30;;;;;;4991740;28;20073;-79
2024/02/16 05:01:46;;;;;;;0.50;0.40;;;15.90;78.30;;;;;;4991978;28;20065;-79
2024/02/16 05:04:16;;;;;;;0.88;0.30;;;15.80;78.20;;;;;;4991741;28;20124;-79
2024/02/16 05:06:46;;;;;;;1.00;0.32;;;15.80;78.20;;;;;;4993481;28;20182;-80
2024/02/16 05:09:11;;;;;;;0.50;0.50;;;15.90;78.30;;;;;;5008129;28;20053;-79
2024/02/16 05:11:37;;;;;;;0.57;0.52;;;15.80;78.20;;;;;;5007099;28;20054;-79
2024/02/16 05:14:03;;;;;;;0.38;0.38;;;15.90;78.20;;;;;;5006247;28;20798;-79
2024/02/16 05:16:28;;;;;;;0.63;0.50;;;15.90;78.10;;;;;;4990532;28;20141;-80
2024/02/16 05:18:56;;;;;;;0.50;0.50;;;15.90;78.20;;;;;;5009159;28;20053;-79
2024/02/16 05:21:22;;;;;;;0.43;0.43;;;15.90;78.20;;;;;;5006531;28;20058;-79
2024/02/16 05:23:47;;;;;;;0.43;0.30;;;15.90;78.20;;;;;;4992263;28;20506;-79
2024/02/16 05:26:13;;;;;;;0.30;0.30;;;15.90;78.10;;;;;;4991237;28;20045;-80
2024/02/16 05:28:39;;;;;;;0.70;0.52;;;15.90;78.10;;;;;;4993556;28;20062;-80
2024/02/16 05:31:14;;;;;;;0.40;0.30;;;15.80;78.90;;;;;;4992140;28;20046;-79
2024/02/16 05:33:40;;;;;;;0.50;0.50;;;15.90;78.20;;;;;;5006936;28;20104;-79
2024/02/16 05:36:06;;;;;;;0.57;0.45;;;15.90;78.10;;;;;;5007061;28;20065;-79
2024/02/16 05:38:34;;;;;;;0.57;0.40;;;15.90;78.20;;;;;;5005991;28;20083;-79
2024/02/16 05:41:00;;;;;;;0.57;0.30;;;15.90;78.20;;;;;;4988844;28;20152;-79
2024/02/16 05:43:26;;;;;;;0.55;0.47;;;15.90;78.30;;;;;;4989574;28;20058;-79
2024/02/16 05:45:51;;;;;;;0.40;0.40;;;15.90;78.20;;;;;;4992372;28;20030;-79
2024/02/16 05:48:17;;;;;;;1.13;0.40;;;15.90;78.30;;;;;;5006225;28;20081;-79
2024/02/16 05:50:43;;;;;;;0.75;0.50;;;15.90;78.40;;;;;;4988578;28;20096;-80
2024/02/16 05:53:10;;;;;;;0.30;0.20;;;15.90;78.40;;;;;;5004154;28;20089;-79
2024/02/16 05:55:36;;;;;;;0.32;0.30;;;15.90;78.30;;;;;;5003162;28;20060;-80
2024/02/16 05:58:01;;;;;;;0.73;0.47;;;15.90;78.30;;;;;;4991078;28;20783;-80
2024/02/16 06:00:27;;;;;;;0.30;0.30;;;15.90;78.20;;;;;;4991169;28;20077;-79
2024/02/16 06:02:53;;;;;;;0.60;0.40;;;15.90;78.10;;;;;;4990607;28;20048;-80
2024/02/16 06:05:20;;;;;;;0.70;0.30;;;15.90;78.10;;;;;;5004168;28;20091;-79
2024/02/16 06:07:45;;;;;;;0.85;0.50;;;15.90;78.00;;;;;;4974888;28;20069;-81
2024/02/16 06:10:11;;;;;;;0.32;0.25;;;15.90;78.00;;;;;;4991619;28;20076;-82
2024/02/16 06:12:38;;;;;;;0.40;0.30;;;15.90;78.10;;;;;;5007100;28;20080;-82
2024/02/16 06:15:04;;;;;;;0.93;0.45;;;15.90;77.90;;;;;;4990166;28;20545;-79
2024/02/16 06:17:30;;;;;;;0.43;0.40;;;15.90;77.90;;;;;;4988584;28;20563;-80
2024/02/16 06:19:55;;;;;;;0.30;0.30;;;15.90;77.90;;;;;;4654918;28;9999979;-79
2024/02/16 06:22:21;;;;;;;0.75;0.50;;;15.90;77.80;;;;;;4987045;28;20030;-80
2024/02/16 06:24:47;;;;;;;1.17;0.50;;;16.00;78.10;;;;;;4991110;28;20049;-80
2024/02/16 06:27:13;;;;;;;0.50;0.50;;;16.00;79.40;;;;;;4987330;28;20049;-78
2024/02/16 06:29:38;;;;;;;0.65;0.43;;;16.10;80.00;;;;;;5003420;28;20070;-80
2024/02/16 06:32:04;;;;;;;0.30;0.30;;;16.10;79.30;;;;;;4999297;28;20120;-80
2024/02/16 06:34:30;;;;;;;0.68;0.40;;;16.10;79.90;;;;;;5001119;28;20721;-80
2024/02/16 06:36:56;;;;;;;0.95;0.30;;;16.10;80.00;;;;;;5005546;28;20041;-80
2024/02/16 06:39:22;;;;;;;1.23;0.40;;;16.10;79.80;;;;;;4970721;28;20065;-80
2024/02/16 06:41:47;;;;;;;0.38;0.38;;;16.10;79.70;;;;;;5002987;28;20049;-78
2024/02/16 06:44:13;;;;;;;0.57;0.38;;;16.10;79.60;;;;;;4986799;28;20470;-77
2024/02/16 06:46:39;;;;;;;0.73;0.30;;;16.10;79.40;;;;;;5002781;28;20046;-78
2024/02/16 06:49:04;;;;;;;0.85;0.40;;;16.10;79.20;;;;;;5005107;28;20606;-78
2024/02/16 06:51:30;;;;;;;0.70;0.40;;;16.10;79.40;;;;;;4987112;28;20046;-78
2024/02/16 06:53:55;;;;;;;1.65;0.40;;;16.10;79.10;;;;;;5003196;28;20512;-77
2024/02/16 06:56:21;;;;;;;0.55;0.35;;;16.10;79.10;;;;;;4987774;28;20042;-77
2024/02/16 06:58:47;;;;;;;0.20;0.20;;;16.10;79.10;;;;;;4991629;28;20045;-77
2024/02/16 07:01:13;;;;;;;0.60;0.28;;;16.10;79.10;;;;;;5004848;28;20053;-78
2024/02/16 07:03:38;;;;;;;0.40;0.40;;;16.10;79.10;;;;;;5004999;28;20050;-77
2024/02/16 07:06:07;;;;;;;0.30;0.30;;;16.10;79.00;;;;;;4992655;28;20054;-80
2024/02/16 07:08:33;;;;;;;0.45;0.40;;;16.10;79.00;;;;;;5006182;28;20073;-80
2024/02/16 07:10:58;;;;;;;1.08;0.32;;;16.10;79.00;;;;;;4992941;28;20484;-80
2024/02/16 07:13:24;;;;;;;0.40;0.20;;;16.10;79.00;;;;;;4989542;28;20057;-80
2024/02/16 07:15:50;;;;;;;1.02;0.40;;;16.10;79.00;;;;;;5008363;28;20049;-80
2024/02/16 07:18:16;;;;;;;0.60;0.50;;;16.10;79.20;;;;;;4990094;28;20045;-80
2024/02/16 07:20:41;;;;;;;1.92;0.50;;;16.10;79.20;;;;;;4973639;28;20052;-80
2024/02/16 07:23:09;;;;;;;1.27;0.38;;;16.10;79.10;;;;;;4990561;28;20049;-80
2024/02/16 07:25:35;;;;;;;0.68;0.40;;;16.10;79.00;;;;;;4990595;28;20038;-80
2024/02/16 07:28:00;;;;;;;0.25;0.20;;;16.10;78.90;;;;;;4988620;28;20105;-79
2024/02/16 07:30:26;;;;;;;0.93;0.38;;;16.20;78.60;;;;;;4989178;28;20049;-81
2024/02/16 07:32:52;;;;;;;1.45;0.20;;;16.10;78.40;;;;;;4990643;28;20049;-82
2024/02/16 07:35:24;;;;;;;0.20;0.20;;;16.20;78.30;;;;;;4990829;28;20061;-79
2024/02/16 07:37:52;;;;;;;2.15;0.20;;;16.20;78.10;;;;;;5005697;28;20435;-80
2024/02/16 07:40:18;;;;;;;0.65;0.30;;;16.20;78.10;;;;;;4989705;28;20203;-78
2024/02/16 07:42:44;;;;;;;0.20;0.20;;;16.10;77.90;;;;;;5006717;28;20136;-81
2024/02/16 07:45:11;;;;;;;0.30;0.20;;;16.20;77.90;;;;;;4991465;28;20431;-80
2024/02/16 07:47:46;;;;;;;2.83;0.35;;;16.20;77.80;;;;;;4989020;28;20049;-80
2024/02/16 07:50:11;;;;;;;0.82;0.43;;;16.30;77.90;;;;;;4993507;28;20057;-80
2024/02/16 07:52:38;;;;;;;4.40;0.20;;;16.20;78.20;;;;;;5007310;28;20049;-78
2024/02/16 07:55:04;;;;;;;0.43;0.30;;;16.20;78.40;;;;;;5019086;28;20532;-79
2024/02/16 07:57:30;;;;;;;0.43;0.30;;;16.20;78.20;;;;;;5004001;28;20126;-79
2024/02/16 07:59:56;;;;;;;0.50;0.25;;;16.20;78.50;;;;;;5005123;28;20128;-79
2024/02/16 08:02:22;;;;;;;0.52;0.20;;;16.20;78.50;;;;;;5000007;28;20468;-79
2024/02/16 08:04:48;;;;;;;0.85;0.50;;;16.20;78.40;;;;;;4999575;28;20073;-79
2024/02/16 08:07:14;;;;;;;0.43;0.30;;;16.20;78.20;;;;;;5003274;28;20037;-79
2024/02/16 08:09:39;;;;;;;0.30;0.30;;;16.10;78.10;;;;;;5006436;28;20504;-79
2024/02/16 08:12:06;;;;;;;0.45;0.28;;;16.10;78.20;;;;;;5004527;28;20488;-79
2024/02/16 08:14:33;;;;;;;0.93;0.40;;;16.10;78.10;;;;;;5016374;28;20050;-79
2024/02/16 08:16:59;;;;;;;1.17;0.47;;;16.10;78.30;;;;;;5000783;28;20511;-79
2024/02/16 08:19:31;;;;;;;2.17;0.40;;;16.10;78.10;;;;;;5003813;28;20046;-78
2024/02/16 08:21:56;;;;;;;1.80;0.40;;;16.10;78.10;;;;;;5003506;28;20049;-79
2024/02/16 08:24:22;;;;;;;1.42;0.32;;;16.10;78.20;;;;;;5004057;28;20041;-79
2024/02/16 08:26:47;;;;;;;0.32;0.30;;;16.10;78.00;;;;;;5002998;28;20451;-79
2024/02/16 08:29:13;;;;;;;0.45;0.40;;;16.00;77.90;;;;;;5005870;28;20393;-79
2024/02/16 08:31:38;;;;;;;1.42;0.45;;;16.10;77.90;;;;;;5002286;28;20061;-79
2024/02/16 08:34:07;;;;;;;1.90;0.45;;;16.10;78.00;;;;;;5004248;28;20141;-79
2024/02/16 08:36:33;;;;;;;1.13;0.50;;;16.10;78.00;;;;;;5004832;28;20353;-79
2024/02/16 08:38:59;;;;;;;0.30;0.20;;;16.10;78.00;;;;;;5000479;28;20088;-79
2024/02/16 08:41:25;;;;;;;0.77;0.40;;;16.10;77.80;;;;;;5004657;28;20495;-79
2024/02/16 08:43:50;;;;;;;0.85;0.40;;;16.00;77.80;;;;;;5002276;28;20547;-79
2024/02/16 08:46:16;;;;;;;1.30;0.30;;;16.00;77.90;;;;;;5003720;28;20039;-79
2024/02/16 08:48:44;;;;;;;0.47;0.30;;;16.10;77.80;;;;;;5001818;28;20408;-79
2024/02/16 08:51:09;;;;;;;0.40;0.30;;;16.00;77.70;;;;;;5003707;28;20045;-79
2024/02/16 08:53:36;;;;;;;0.50;0.40;;;16.10;77.90;;;;;;5000274;28;20038;-79
2024/02/16 08:56:01;;;;;;;1.05;0.30;;;16.00;77.60;;;;;;5017126;28;20054;-79
2024/02/16 08:58:27;;;;;;;0.40;0.40;;;16.10;77.60;;;;;;5003321;28;20504;-79
2024/02/16 09:00:52;;;;;;;0.60;0.30;;;16.10;77.40;;;;;;5006407;28;20046;-79
2024/02/16 09:03:18;;;;;;;0.50;0.45;;;16.10;77.30;;;;;;5018463;28;20077;-79
2024/02/16 09:05:43;;;;;;;1.13;0.52;;;16.10;77.30;;;;;;4999148;28;20045;-79
2024/02/16 09:08:09;;;;;;;0.60;0.40;;;16.10;77.30;;;;;;5016722;28;20033;-79
2024/02/16 09:10:36;;;;;;;0.43;0.40;;;16.20;77.20;;;;;;5001965;28;20026;-79
2024/02/16 09:13:01;;;;;;;0.35;0.20;;;16.20;77.10;;;;;;4999979;28;20093;-79
2024/02/16 09:15:27;;;;;;;0.68;0.60;;;16.20;77.10;;;;;;4997987;28;20045;-79
2024/02/16 09:17:53;;;;;;;0.70;0.40;;;16.10;77.20;;;;;;5002933;28;20523;-79
2024/02/16 09:20:22;;;;;;;0.50;0.35;;;16.10;77.10;;;;;;5004959;28;20046;-79
2024/02/16 09:22:48;;;;;;;0.50;0.30;;;16.10;77.10;;;;;;5014394;28;20046;-79
2024/02/16 09:25:14;;;;;;;1.27;0.43;;;16.10;77.10;;;;;;4998365;28;20056;-79
2024/02/16 09:27:41;;;;;;;0.70;0.40;;;16.20;76.90;;;;;;5003745;28;20037;-79
2024/02/16 09:30:10;;;;;;;0.60;0.47;;;16.30;76.50;;;;;;4999787;28;20046;-79
2024/02/16 09:32:36;;;;;;;0.22;0.20;;;16.30;76.30;;;;;;5002412;28;20590;-79
2024/02/16 09:35:02;;;;;;;0.70;0.30;;;16.30;76.20;;;;;;5002367;28;20132;-79
2024/02/16 09:37:27;;;;;;;0.57;0.57;;;16.30;76.10;;;;;;4985435;28;20053;-79
2024/02/16 09:39:54;;;;;;;0.73;0.43;;;16.30;76.00;;;;;;5004351;28;20088;-79
2024/02/16 09:42:20;;;;;;;0.40;0.30;;;16.30;76.10;;;;;;5004162;28;20108;-79
2024/02/16 09:44:45;;;;;;;0.60;0.30;;;16.30;75.80;;;;;;5013642;28;20503;-79
2024/02/16 09:47:14;;;;;;;0.52;0.28;;;16.40;75.80;;;;;;4999888;28;20048;-79
2024/02/16 09:49:39;;;;;;;0.88;0.30;;;16.40;75.50;;;;;;5014947;28;20038;-79
2024/02/16 09:52:05;;;;;;;0.70;0.40;;;16.40;75.30;;;;;;5017831;28;20096;-79
2024/02/16 09:54:38;;;;;;;0.50;0.30;;;16.50;75.30;;;;;;5004193;28;20042;-79
2024/02/16 09:57:04;;;;;;;0.30;0.20;;;16.50;75.20;;;;;;5015779;28;20041;-79
2024/02/16 09:59:31;;;;;;;0.60;0.43;;;16.50;75.10;;;;;;4998382;28;20093;-79
2024/02/16 10:02:03;;;;;;;0.40;0.30;;;16.50;75.10;;;;;;5015888;28;20535;-79
2024/02/16 10:04:29;;;;;;;0.75;0.30;;;16.50;75.00;;;;;;5017373;28;20655;-79
2024/02/16 10:06:55;;;;;;;0.70;0.30;;;16.50;75.00;;;;;;5007254;28;20042;-79
2024/02/16 10:09:30;;;;;;;1.23;0.38;;;16.60;75.00;;;;;;5016925;28;20129;-79
2024/02/16 10:11:57;;;;;;;0.30;0.28;;;16.60;74.90;;;;;;5013246;28;20073;-79
2024/02/16 10:14:22;;;;;;;0.22;0.20;;;16.60;75.00;;;;;;4999509;28;20050;-79
2024/02/16 10:16:48;;;;;;;0.52;0.30;;;16.60;75.00;;;;;;4996458;28;20042;-79
2024/02/16 10:19:14;;;;;;;0.30;0.17;;;16.70;74.80;;;;;;4999217;28;20041;-78
2024/02/16 10:21:40;;;;;;;0.63;0.30;;;16.70;74.80;;;;;;4998645;28;20030;-78
2024/02/16 10:24:09;;;;;;;0.60;0.20;;;16.60;75.00;;;;;;5012889;28;20125;-78
2024/02/16 10:26:39;;;;;;;0.90;0.25;;;16.60;74.90;;;;;;4999464;28;20053;-79
2024/02/16 10:29:11;;;;;;;0.20;0.20;;;16.60;74.90;;;;;;4997957;28;20117;-79
2024/02/16 10:31:36;;;;;;;0.90;0.47;;;16.70;74.90;;;;;;5003274;28;22143;-79
2024/02/16 10:34:05;;;;;;;0.45;0.13;;;16.80;74.70;;;;;;5016006;28;20085;-79
2024/02/16 10:36:32;;;;;;;1.15;0.40;;;16.80;74.50;;;;;;5000748;28;20045;-79
2024/02/16 10:38:57;;;;;;;0.30;0.20;;;16.80;74.60;;;;;;5016851;28;20056;-79
2024/02/16 10:41:26;;;;;;;0.85;0.35;;;16.90;74.60;;;;;;5004771;28;20030;-79
2024/02/16 10:43:52;;;;;;;0.60;0.28;;;16.80;74.40;;;;;;4999066;28;20065;-79
2024/02/16 10:46:17;;;;;;;0.73;0.20;;;16.80;74.50;;;;;;5017533;28;25852;-79
2024/02/16 10:48:43;;;;;;;0.38;0.38;;;16.80;74.50;;;;;;5006607;28;20038;-79
2024/02/16 10:51:09;;;;;;;0.38;0.20;;;16.80;74.20;;;;;;5005175;28;20057;-79
2024/02/16 10:53:34;;;;;;;0.32;0.20;;;16.90;74.40;;;;;;5019255;28;20066;-79
2024/02/16 10:56:01;;;;;;;0.28;0.20;;;16.90;74.20;;;;;;4998918;28;20037;-79
2024/02/16 10:58:27;;;;;;;0.35;0.20;;;16.90;74.30;;;;;;5005091;28;20076;-79
2024/02/16 11:00:53;;;;;;;0.10;0.10;;;16.80;74.00;;;;;;5000575;28;20046;-79
2024/02/16 11:03:24;;;;;;;0.32;0.22;;;16.80;74.40;;;;;;4998275;28;20140;-79
2024/02/16 11:05:49;;;;;;;0.52;0.20;;;16.80;74.20;;;;;;5020924;28;20050;-78
2024/02/16 11:08:16;;;;;;;0.47;0.20;;;16.80;75.20;;;;;;5017664;28;20410;-80
2024/02/16 11:10:53;;;;;;;0.40;0.20;;;16.80;74.50;;;;;;4997969;28;20129;-81
2024/02/16 11:13:25;;;;;;;0.47;0.40;;;16.90;74.00;;;;;;5005689;28;20061;-80
2024/02/16 11:15:57;;;;;;;0.80;0.40;;;16.90;74.30;;;;;;4990601;28;20054;-80
2024/02/16 11:18:23;;;;;;;0.22;0.22;;;16.80;74.10;;;;;;5005208;28;20077;-81
2024/02/16 11:20:48;;;;;;;0.47;0.20;;;16.80;74.40;;;;;;5006456;28;20080;-80
2024/02/16 11:23:14;;;;;;;0.38;0.15;;;16.80;74.40;;;;;;5002321;28;20093;-81
2024/02/16 11:25:49;;;;;;;0.43;0.30;;;16.80;74.30;;;;;;5003647;28;20048;-80
2024/02/16 11:28:14;;;;;;;0.50;0.30;;;16.70;74.40;;;;;;5006469;28;20037;-81
2024/02/16 11:30:40;;;;;;;0.43;0.30;;;16.70;74.50;;;;;;5004732;28;20081;-81
2024/02/16 11:33:05;;;;;;;0.40;0.30;;;16.70;74.40;;;;;;5003319;28;20050;-80
2024/02/16 11:35:31;;;;;;;0.30;0.20;;;16.70;74.50;;;;;;5002306;28;20038;-80
2024/02/16 11:37:56;;;;;;;0.20;0.20;;;16.80;74.30;;;;;;5004117;28;20089;-81
2024/02/16 11:40:22;;;;;;;0.35;0.35;;;16.80;74.20;;;;;;5003380;28;20721;-81
2024/02/16 11:42:48;;;;;;;0.40;0.20;;;16.80;74.20;;;;;;5003181;28;20467;-81
2024/02/16 11:45:13;;;;;;;0.22;0.17;;;16.70;74.00;;;;;;5001577;28;20049;-80
2024/02/16 11:47:39;;;;;;;0.43;0.30;;;16.70;74.30;;;;;;5000575;28;20045;-80
2024/02/16 11:50:05;;;;;;;0.40;0.25;;;16.80;74.10;;;;;;5002552;28;20029;-81
2024/02/16 11:52:31;;;;;;;0.40;0.30;;;16.80;74.20;;;;;;5004211;28;20554;-80
2024/02/16 11:55:00;;;;;;;1.13;0.30;;;16.80;75.00;;;;;;4989343;28;20054;-81
2024/02/16 11:57:26;;;;;;;0.10;0.10;;;16.70;74.00;;;;;;5003342;28;20543;-81
2024/02/16 11:59:52;;;;;;;0.45;0.30;;;16.70;74.10;;;;;;5019608;28;20037;-80
2024/02/16 12:02:19;;;;;;;0.40;0.20;;;16.70;74.20;;;;;;5004944;28;20556;-81
2024/02/16 12:04:45;;;;;;;0.40;0.20;;;16.70;74.20;;;;;;5004466;28;20047;-80
2024/02/16 12:07:12;;;;;;;0.35;0.30;;;16.70;74.10;;;;;;5002104;28;20037;-81
2024/02/16 12:09:37;;;;;;;0.80;0.20;;;16.70;74.20;;;;;;5005392;28;20552;-81
2024/02/16 12:12:04;;;;;;;0.40;0.40;;;16.70;74.00;;;;;;5013102;28;20145;-80
2024/02/16 12:14:29;;;;;;;0.57;0.30;;;16.70;74.40;;;;;;5017138;28;20050;-81
2024/02/16 12:16:56;;;;;;;0.20;0.13;;;16.70;74.10;;;;;;4999916;28;20148;-80
2024/02/16 12:19:24;;;;;;;0.30;0.30;;;16.70;74.00;;;;;;5016068;28;20076;-81
2024/02/16 12:21:53;;;;;;;0.47;0.28;;;16.70;73.90;;;;;;5006285;28;20484;-81
2024/02/16 12:24:20;;;;;;;0.30;0.20;;;16.70;74.10;;;;;;4986540;28;20034;-81
2024/02/16 12:26:45;;;;;;;0.20;0.13;;;16.70;73.90;;;;;;5018854;28;20038;-81
2024/02/16 12:29:13;;;;;;;0.30;0.20;;;16.70;74.00;;;;;;5000864;28;20508;-81
2024/02/16 12:31:44;;;;;;;0.20;0.20;;;16.80;73.90;;;;;;4997722;28;20504;-81
2024/02/16 12:34:10;;;;;;;0.22;0.20;;;16.70;74.00;;;;;;4985837;28;21261;-80
2024/02/16 12:36:38;;;;;;;0.30;0.20;;;16.70;74.00;;;;;;4999934;28;20057;-80
2024/02/16 12:39:04;;;;;;;1.65;0.30;;;16.70;74.10;;;;;;5000752;28;20121;-80
2024/02/16 12:41:30;;;;;;;0.20;0.20;;;16.80;74.00;;;;;;4999954;28;20137;-81